createdAt,value
2018-02-11T11:52:36.442Z,1.58
2018-02-11T11:54:39.002Z,1.83
2018-02-11T11:56:41.570Z,1.80
2018-02-11T11:58:44.117Z,2.20
2018-02-11T12:00:47.630Z,2.28
2018-02-11T12:02:50.274Z,1.15
2018-02-11T12:04:55.700Z,3.25
2018-02-11T12:06:58.607Z,3.03
2018-02-11T12:09:01.283Z,2.62
2018-02-11T12:11:03.876Z,1.55
2018-02-11T12:13:07.227Z,1.48
2018-02-11T12:15:09.819Z,3.95
2018-02-11T12:17:12.369Z,2.85
2018-02-11T12:19:14.958Z,4.03
2018-02-11T12:21:18.189Z,4.53
2018-02-11T12:23:20.765Z,5.03
2018-02-11T12:25:23.307Z,2.50
2018-02-11T12:27:26.645Z,1.75
2018-02-11T12:29:29.743Z,2.87
2018-02-11T12:31:32.290Z,1.87
2018-02-11T12:33:35.151Z,3.65
2018-02-11T12:35:38.474Z,3.10
2018-02-11T12:37:41.050Z,2.75
2018-02-11T12:39:43.637Z,3.47
2018-02-11T12:41:46.205Z,4.32
2018-02-11T12:43:48.767Z,1.40
2018-02-11T12:45:51.299Z,4.60
2018-02-11T12:47:54.613Z,2.22
2018-02-11T12:52:06.208Z,2.95
2018-02-11T12:54:08.782Z,3.55
2018-02-11T12:56:12.267Z,3.30
2018-02-11T12:58:14.885Z,1.60
2018-02-11T13:00:17.445Z,3.15
2018-02-11T13:02:20.009Z,2.70
2018-02-11T13:04:22.567Z,3.42
2018-02-11T13:06:25.127Z,3.22
2018-02-11T13:08:27.692Z,4.07
2018-02-11T13:10:30.249Z,1.92
2018-02-11T13:12:32.809Z,3.50
2018-02-11T13:14:35.384Z,2.15
2018-02-11T13:16:37.966Z,2.58
2018-02-11T13:18:40.838Z,2.47
2018-02-11T13:20:43.393Z,2.75
2018-02-11T13:22:45.959Z,1.00
2018-02-11T13:24:48.545Z,3.33
2018-02-11T13:26:51.157Z,2.40
2018-02-11T13:28:53.721Z,1.73
2018-02-11T13:30:56.251Z,2.12
2018-02-11T13:32:58.830Z,2.53
2018-02-11T13:35:01.389Z,2.05
2018-02-11T13:37:03.979Z,4.80
2018-02-11T13:39:06.563Z,2.10
2018-02-11T13:41:09.140Z,1.85
2018-02-11T13:43:11.740Z,3.25
2018-02-11T13:45:14.309Z,3.28
2018-02-11T13:47:16.862Z,2.15
2018-02-11T13:49:20.188Z,1.42
2018-02-11T13:51:22.785Z,2.53
2018-02-11T13:53:26.095Z,2.30
2018-02-11T13:55:29.678Z,2.17
2018-02-11T13:57:33.005Z,1.30
2018-02-11T13:59:35.557Z,2.83
2018-02-11T14:01:38.149Z,2.60
2018-02-11T14:03:40.718Z,1.23
2018-02-11T14:05:43.443Z,2.00
2018-02-11T14:07:46.042Z,0.98
2018-02-11T14:09:48.578Z,5.12
2018-02-11T14:11:51.179Z,1.50
2018-02-11T14:13:54.502Z,1.33
2018-02-11T14:15:57.068Z,3.20
2018-02-11T14:17:59.664Z,2.08
2018-02-11T14:20:02.281Z,1.58
2018-02-11T14:22:04.880Z,1.10
2018-02-11T14:24:08.187Z,2.30
2018-02-11T14:26:12.657Z,1.45
2018-02-11T14:28:15.648Z,2.03
2018-02-11T14:30:18.299Z,5.00
2018-02-11T14:32:20.931Z,2.12
2018-02-11T14:34:23.490Z,1.70
2018-02-11T14:36:26.134Z,2.28
2018-02-11T14:38:29.649Z,1.15
2018-02-11T14:40:32.207Z,0.98
2018-02-11T14:42:34.828Z,3.17
2018-02-11T14:44:37.449Z,1.98
2018-02-11T14:46:40.016Z,1.27
2018-02-11T14:48:42.607Z,1.35
2018-02-11T14:50:45.153Z,1.65
2018-02-11T14:52:49.121Z,0.60
2018-02-11T14:54:52.612Z,2.80
2018-02-11T14:56:55.181Z,2.65
2018-02-11T14:58:57.747Z,1.55
2018-02-11T15:01:00.296Z,2.17
2018-02-11T15:03:03.780Z,1.08
2018-02-11T15:05:06.315Z,1.50
2018-02-11T15:07:09.468Z,1.10
2018-02-11T15:09:12.030Z,1.25
2018-02-11T15:11:14.573Z,1.25
2018-02-11T15:13:17.126Z,1.35
2018-02-11T15:15:19.668Z,1.67
2018-02-11T15:17:22.254Z,0.70
2018-02-11T15:19:25.238Z,0.70
2018-02-11T15:21:27.843Z,1.10
2018-02-11T15:23:32.269Z,0.90
2018-02-11T15:25:34.819Z,0.50
2018-02-11T15:27:37.438Z,1.25
2018-02-11T15:29:39.993Z,1.55
2018-02-11T15:31:43.499Z,1.33
2018-02-11T15:33:47.240Z,1.27
2018-02-11T15:35:49.840Z,1.40
2018-02-11T15:37:52.417Z,1.12
2018-02-11T15:39:55.432Z,2.12
2018-02-11T15:41:58.495Z,1.20
2018-02-11T15:44:01.048Z,1.02
2018-02-11T15:46:04.158Z,0.90
2018-02-11T15:48:07.353Z,0.85
2018-02-11T15:50:10.926Z,1.35
2018-02-11T15:52:13.973Z,1.55
2018-02-11T15:54:16.696Z,0.90
2018-02-11T15:56:19.254Z,1.83
2018-02-11T15:58:22.570Z,1.70
2018-02-11T16:00:25.117Z,1.00
2018-02-11T16:02:27.685Z,1.67
2018-02-11T16:04:30.236Z,0.93
2018-02-11T16:06:33.574Z,1.67
2018-02-11T16:08:36.884Z,1.67
2018-02-11T16:10:39.422Z,1.42
2018-02-11T16:12:42.007Z,2.22
2018-02-11T16:14:44.549Z,2.90
2018-02-11T16:16:47.126Z,1.37
2018-02-11T16:18:49.700Z,10.73
2018-02-11T16:20:53.074Z,1.35
2018-02-11T16:22:55.660Z,2.53
2018-02-11T16:24:58.195Z,2.03
2018-02-11T16:27:00.761Z,2.78
2018-02-11T16:29:03.298Z,4.30
2018-02-11T16:31:05.864Z,1.62
2018-02-11T16:33:08.425Z,3.05
2018-02-11T16:35:10.969Z,1.40
2018-02-11T16:37:14.287Z,2.25
2018-02-11T16:39:16.826Z,3.72
2018-02-11T16:41:19.385Z,2.95
2018-02-11T16:43:22.564Z,1.40
2018-02-11T16:45:25.122Z,2.30
2018-02-11T16:47:27.688Z,2.05
2018-02-11T16:49:30.998Z,3.45
2018-02-11T16:51:34.362Z,2.03
2018-02-11T16:53:36.919Z,5.47
2018-02-11T16:55:39.478Z,1.40
2018-02-11T16:57:42.055Z,2.22
2018-02-11T16:59:44.610Z,2.58
2018-02-11T17:01:47.178Z,4.20
2018-02-11T17:03:49.732Z,1.85
2018-02-11T17:05:52.281Z,1.02
2018-02-11T17:07:55.586Z,3.85
2018-02-11T17:09:58.566Z,7.28
2018-02-11T17:12:01.892Z,8.07
2018-02-11T17:14:04.449Z,5.97
2018-02-11T17:16:06.974Z,7.30
2018-02-11T17:18:09.535Z,8.65
2018-02-11T17:20:12.070Z,8.13
2018-02-11T17:22:14.843Z,5.82
2018-02-11T17:24:17.376Z,6.55
2018-02-11T17:26:19.906Z,10.35
2018-02-11T17:28:22.451Z,7.90
2018-02-11T17:30:25.013Z,12.30
2018-02-11T17:32:28.353Z,15.50
2018-02-11T17:34:30.925Z,17.73
2018-02-11T17:36:33.481Z,27.58
2018-02-11T17:38:36.045Z,22.23
2018-02-11T17:40:38.590Z,34.47
2018-02-11T17:42:41.165Z,31.98
2018-02-11T17:44:43.703Z,19.52
2018-02-11T17:46:47.025Z,23.02
2018-02-11T17:48:49.585Z,24.52
2018-02-11T17:50:52.139Z,20.50
2018-02-11T17:52:54.737Z,24.92
2018-02-11T17:54:57.270Z,27.92
2018-02-11T17:56:59.832Z,25.60
2018-02-11T17:59:02.408Z,23.87
2018-02-11T18:01:04.950Z,23.12
2018-02-11T18:03:09.079Z,30.15
2018-02-11T18:05:11.624Z,20.48
2018-02-11T18:07:14.215Z,23.23
2018-02-11T18:09:16.754Z,17.35
2018-02-11T18:11:19.314Z,18.08
2018-02-11T18:13:21.889Z,13.95
2018-02-11T18:15:25.346Z,19.35
2018-02-11T18:17:27.917Z,16.95
2018-02-11T18:19:33.909Z,16.12
2018-02-11T18:21:36.492Z,15.00
2018-02-11T18:23:39.064Z,14.27
2018-02-11T18:25:41.603Z,17.05
2018-02-11T18:27:46.085Z,13.90
2018-02-11T18:29:48.653Z,14.23
2018-02-11T18:31:51.247Z,12.45
2018-02-11T18:33:53.810Z,13.43
2018-02-11T18:35:57.144Z,14.13
2018-02-11T18:37:59.712Z,11.30
2018-02-11T18:40:02.283Z,9.38
2018-02-11T18:42:04.876Z,12.85
2018-02-11T18:44:07.441Z,11.50
2018-02-11T18:46:09.966Z,12.37
2018-02-11T18:48:12.533Z,10.57
2018-02-11T18:50:15.088Z,11.43
2018-02-11T18:52:17.631Z,8.82
2018-02-11T18:54:20.161Z,9.90
2018-02-11T18:56:23.491Z,12.65
2018-02-11T18:58:26.014Z,8.50
2018-02-11T19:00:28.576Z,9.05
2018-02-11T19:02:31.133Z,10.88
2018-02-11T19:04:33.685Z,10.32
2018-02-11T19:06:36.248Z,7.68
2018-02-11T19:08:38.801Z,6.87
2018-02-11T19:10:41.382Z,9.02
2018-02-11T19:12:43.970Z,7.05
2018-02-11T19:14:46.522Z,8.95
2018-02-11T19:16:50.267Z,12.82
2018-02-11T19:18:52.837Z,6.43
2018-02-11T19:20:55.384Z,10.73
2018-02-11T19:22:58.006Z,12.02
2018-02-11T19:25:00.549Z,6.68
2018-02-11T19:27:03.103Z,8.27
2018-02-11T19:29:06.401Z,8.57
2018-02-11T19:31:08.937Z,7.18
2018-02-11T19:33:11.482Z,5.25
2018-02-11T19:35:14.046Z,7.68
2018-02-11T19:37:16.602Z,8.80
2018-02-11T19:39:19.145Z,6.68
2018-02-11T19:41:21.701Z,10.23
2018-02-11T19:43:24.259Z,6.12
2018-02-11T19:45:26.808Z,8.43
2018-02-11T19:47:29.376Z,6.25
2018-02-11T19:49:32.317Z,5.57
2018-02-11T19:51:34.871Z,4.37
2018-02-11T19:53:37.431Z,10.05
2018-02-11T19:55:40.002Z,6.35
2018-02-11T19:57:42.600Z,4.50
2018-02-11T19:59:45.151Z,5.87
2018-02-11T20:01:47.736Z,4.07
2018-02-11T20:03:50.356Z,6.55
2018-02-11T20:05:52.913Z,5.37
2018-02-11T20:07:56.762Z,5.40
2018-02-11T20:10:02.084Z,5.45
2018-02-11T20:12:04.636Z,5.85
2018-02-11T20:14:07.954Z,4.07
2018-02-11T20:16:10.504Z,6.62
2018-02-11T20:18:14.073Z,3.85
2018-02-11T20:20:17.401Z,5.85
2018-02-11T20:22:19.997Z,4.22
2018-02-11T20:24:22.550Z,5.28
2018-02-11T20:26:25.157Z,5.85
2018-02-11T20:28:27.683Z,6.35
2018-02-11T20:30:31.018Z,4.68
2018-02-11T20:32:33.601Z,4.75
2018-02-11T20:34:37.062Z,4.68
2018-02-11T20:36:39.843Z,4.65
2018-02-11T20:38:42.367Z,2.62
2018-02-11T20:40:44.963Z,7.78
2018-02-11T20:42:47.536Z,6.30
2018-02-11T20:44:52.686Z,3.72
2018-02-11T20:46:55.236Z,3.40
2018-02-11T20:48:57.825Z,2.95
2018-02-11T20:51:02.015Z,6.12
2018-02-11T20:53:04.587Z,6.03
2018-02-11T20:55:07.153Z,4.25
2018-02-11T20:57:09.718Z,3.80
2018-02-11T20:59:12.248Z,2.65
2018-02-11T21:01:14.781Z,3.20
2018-02-11T21:03:17.361Z,3.60
2018-02-11T21:05:19.910Z,2.85
2018-02-11T21:07:22.460Z,3.58
2018-02-11T21:09:25.014Z,5.80
2018-02-11T21:11:27.576Z,4.85
2018-02-11T21:13:30.900Z,3.08
2018-02-11T21:15:33.433Z,4.40
2018-02-11T21:17:35.984Z,4.75
2018-02-11T21:19:38.540Z,3.78
2018-02-11T22:18:34.126Z,4.75
2018-02-11T22:20:36.685Z,2.25
2018-02-11T22:22:39.548Z,3.22
2018-02-11T22:24:42.104Z,2.25
2018-02-11T22:26:44.673Z,2.50
2018-02-11T22:28:47.221Z,4.15
2018-02-11T22:30:49.834Z,2.08
2018-02-11T22:32:52.385Z,1.20
2018-02-11T22:34:55.920Z,2.12
2018-02-11T22:36:58.499Z,1.95
2018-02-11T22:39:01.410Z,2.58
2018-02-11T22:41:03.965Z,1.15
2018-02-11T22:43:06.823Z,2.03
2018-02-11T22:45:09.423Z,1.35
2018-02-11T22:47:11.990Z,1.62
2018-02-11T22:49:14.558Z,2.67
2018-02-11T22:51:17.084Z,2.08
2018-02-11T22:53:19.628Z,2.15
2018-02-11T22:55:22.278Z,4.47
